<?xml version="1.0" encoding="UTF-8" standalone="no" ?>
<gpx xmlns="http://www.topografix.com/GPX/1/1" xmlns:xsi="http://www.w3.org/2001/XMLSchema-instance" xsi:schemaLocation="http://www.topografix.com/GPX/1/1 http://www.topografix.com/GPX/1/1/gpx.xsd" version="1.1" creator="VisuGPX - https://www.visugpx.com">
  <metadata>
    <name>Conflans fin d'Oise - Pont Neuville - Château de Fay - Ferme Ecancourt</name>
  </metadata>
  <trk>
    <name><![CDATA[Conflans fin d'Oise - Pont Neuville - Château de Fay - Ferme Ecancourt]]></name>
    <extensions>
      <line xmlns="http://www.topografix.com/GPX/gpx_style/0/2">
        <color>0000FF</color>
        <width>4</width>
      </line>
    </extensions>
    <trkseg>
      <trkpt lat="48.99009" lon="2.08546">
        <ele>23</ele>
        <time>2021-11-03T22:29:37+01:00</time>
      </trkpt>
      <trkpt lat="48.99002" lon="2.08512">
        <ele>22.7</ele>
        <time>2021-11-03T22:29:42+01:00</time>
      </trkpt>
      <trkpt lat="48.98973" lon="2.08366">
        <ele>22.9</ele>
      </trkpt>
      <trkpt lat="48.98963" lon="2.08307">
        <ele>24.2</ele>
        <time>2021-11-03T22:29:47+01:00</time>
      </trkpt>
      <trkpt lat="48.98956" lon="2.08292">
        <ele>23.1</ele>
      </trkpt>
      <trkpt lat="48.98958" lon="2.08266">
        <ele>23.4</ele>
        <time>2021-11-03T22:29:52+01:00</time>
      </trkpt>
      <trkpt lat="48.98947" lon="2.08195">
        <ele>22</ele>
        <time>2021-11-03T22:29:57+01:00</time>
      </trkpt>
      <trkpt lat="48.98812" lon="2.07642">
        <ele>19</ele>
        <time>2021-11-03T22:30:02+01:00</time>
      </trkpt>
      <trkpt lat="48.98779" lon="2.07495">
        <ele>25</ele>
        <time>2021-11-03T22:30:07+01:00</time>
      </trkpt>
      <trkpt lat="48.98764" lon="2.0741">
        <ele>22</ele>
        <time>2021-11-03T22:30:12+01:00</time>
      </trkpt>
      <trkpt lat="48.98749" lon="2.07309">
        <ele>22.8</ele>
        <time>2021-11-03T22:30:17+01:00</time>
      </trkpt>
      <trkpt lat="48.9874" lon="2.07249">
        <ele>22.2</ele>
        <time>2021-11-03T22:30:22+01:00</time>
      </trkpt>
      <trkpt lat="48.9875" lon="2.07215">
        <ele>21</ele>
        <time>2021-11-03T22:30:27+01:00</time>
      </trkpt>
      <trkpt lat="48.98763" lon="2.07209">
        <ele>21.8</ele>
      </trkpt>
      <trkpt lat="48.98774" lon="2.07211">
        <ele>21</ele>
        <time>2021-11-03T22:30:32+01:00</time>
      </trkpt>
      <trkpt lat="48.98798" lon="2.07223">
        <ele>22</ele>
        <time>2021-11-03T22:30:37+01:00</time>
      </trkpt>
      <trkpt lat="48.98811" lon="2.07236">
        <ele>22</ele>
        <time>2021-11-03T22:30:42+01:00</time>
      </trkpt>
      <trkpt lat="48.98824" lon="2.07237">
        <ele>22.7</ele>
        <time>2021-11-03T22:30:47+01:00</time>
      </trkpt>
      <trkpt lat="48.98872" lon="2.07247">
        <ele>22.8</ele>
        <time>2021-11-03T22:30:52+01:00</time>
      </trkpt>
      <trkpt lat="48.98878" lon="2.07258">
        <ele>23</ele>
        <time>2021-11-03T22:30:57+01:00</time>
      </trkpt>
      <trkpt lat="48.98857" lon="2.0732">
        <ele>24</ele>
        <time>2021-11-03T22:31:02+01:00</time>
      </trkpt>
      <trkpt lat="48.98853" lon="2.07317">
        <ele>24</ele>
        <time>2021-11-03T22:31:07+01:00</time>
      </trkpt>
      <trkpt lat="48.98951" lon="2.07058">
        <ele>25.1</ele>
      </trkpt>
      <trkpt lat="48.98952" lon="2.07059">
        <ele>25</ele>
        <time>2021-11-03T22:31:12+01:00</time>
      </trkpt>
      <trkpt lat="48.98936" lon="2.07109">
        <ele>23.3</ele>
        <time>2021-11-03T22:31:17+01:00</time>
      </trkpt>
      <trkpt lat="48.98962" lon="2.0713">
        <ele>20</ele>
        <time>2021-11-03T22:31:22+01:00</time>
      </trkpt>
      <trkpt lat="48.99051" lon="2.07154">
        <ele>21.9</ele>
        <time>2021-11-03T22:31:27+01:00</time>
      </trkpt>
      <trkpt lat="48.99131" lon="2.07165">
        <ele>21</ele>
        <time>2021-11-03T22:31:32+01:00</time>
      </trkpt>
      <trkpt lat="48.9919" lon="2.07166">
        <ele>23</ele>
        <time>2021-11-03T22:31:37+01:00</time>
      </trkpt>
      <trkpt lat="48.99242" lon="2.07161">
        <ele>22.2</ele>
        <time>2021-11-03T22:31:42+01:00</time>
      </trkpt>
      <trkpt lat="48.99272" lon="2.07154">
        <ele>22.4</ele>
        <time>2021-11-03T22:31:47+01:00</time>
      </trkpt>
      <trkpt lat="48.99309" lon="2.07138">
        <ele>22</ele>
      </trkpt>
      <trkpt lat="48.99344" lon="2.07116">
        <ele>22.5</ele>
        <time>2021-11-03T22:31:52+01:00</time>
      </trkpt>
      <trkpt lat="48.99364" lon="2.07106">
        <ele>22.2</ele>
      </trkpt>
      <trkpt lat="48.99391" lon="2.07094">
        <ele>22.6</ele>
        <time>2021-11-03T22:31:57+01:00</time>
      </trkpt>
      <trkpt lat="48.99469" lon="2.07082">
        <ele>22.1</ele>
        <time>2021-11-03T22:32:02+01:00</time>
      </trkpt>
      <trkpt lat="48.99545" lon="2.07083">
        <ele>22</ele>
        <time>2021-11-03T22:32:07+01:00</time>
      </trkpt>
      <trkpt lat="48.9963" lon="2.07098">
        <ele>21.8</ele>
        <time>2021-11-03T22:32:12+01:00</time>
      </trkpt>
      <trkpt lat="48.99749" lon="2.07131">
        <ele>22</ele>
        <time>2021-11-03T22:32:17+01:00</time>
      </trkpt>
      <trkpt lat="48.99764" lon="2.07133">
        <ele>20</ele>
        <time>2021-11-03T22:32:22+01:00</time>
      </trkpt>
      <trkpt lat="48.99774" lon="2.0713">
        <ele>20</ele>
        <time>2021-11-03T22:32:27+01:00</time>
      </trkpt>
      <trkpt lat="48.99793" lon="2.07138">
        <ele>22.5</ele>
      </trkpt>
      <trkpt lat="48.99807" lon="2.0715">
        <ele>20</ele>
        <time>2021-11-03T22:32:32+01:00</time>
      </trkpt>
      <trkpt lat="48.99849" lon="2.07153">
        <ele>20</ele>
        <time>2021-11-03T22:32:37+01:00</time>
      </trkpt>
      <trkpt lat="48.99871" lon="2.07138">
        <ele>22.6</ele>
        <time>2021-11-03T22:32:42+01:00</time>
      </trkpt>
      <trkpt lat="48.99887" lon="2.07118">
        <ele>22.7</ele>
        <time>2021-11-03T22:32:47+01:00</time>
      </trkpt>
      <trkpt lat="48.99899" lon="2.07116">
        <ele>22.5</ele>
        <time>2021-11-03T22:32:52+01:00</time>
      </trkpt>
      <trkpt lat="48.9992" lon="2.07115">
        <ele>22</ele>
      </trkpt>
      <trkpt lat="48.99943" lon="2.07106">
        <ele>22</ele>
        <time>2021-11-03T22:32:57+01:00</time>
      </trkpt>
      <trkpt lat="48.99983" lon="2.07069">
        <ele>23</ele>
        <time>2021-11-03T22:33:02+01:00</time>
      </trkpt>
      <trkpt lat="49.00018" lon="2.07089">
        <ele>23</ele>
        <time>2021-11-03T22:33:07+01:00</time>
      </trkpt>
      <trkpt lat="49.00032" lon="2.07112">
        <ele>23</ele>
        <time>2021-11-03T22:33:12+01:00</time>
      </trkpt>
      <trkpt lat="49.00056" lon="2.07113">
        <ele>23</ele>
        <time>2021-11-03T22:33:17+01:00</time>
      </trkpt>
      <trkpt lat="49.0007" lon="2.07102">
        <ele>22.6</ele>
      </trkpt>
      <trkpt lat="49.00085" lon="2.071">
        <ele>23</ele>
        <time>2021-11-03T22:33:22+01:00</time>
      </trkpt>
      <trkpt lat="49.00094" lon="2.07104">
        <ele>22.5</ele>
        <time>2021-11-03T22:33:27+01:00</time>
      </trkpt>
      <trkpt lat="49.00106" lon="2.07108">
        <ele>23</ele>
        <time>2021-11-03T22:33:32+01:00</time>
      </trkpt>
      <trkpt lat="49.00118" lon="2.0711">
        <ele>22.8</ele>
      </trkpt>
      <trkpt lat="49.00141" lon="2.07102">
        <ele>22.3</ele>
      </trkpt>
      <trkpt lat="49.00138" lon="2.07091">
        <ele>22.7</ele>
      </trkpt>
      <trkpt lat="49.00128" lon="2.0708">
        <ele>23</ele>
      </trkpt>
      <trkpt lat="49.00128" lon="2.07048">
        <ele>23</ele>
      </trkpt>
      <trkpt lat="49.00144" lon="2.07005">
        <ele>23</ele>
      </trkpt>
      <trkpt lat="49.0016" lon="2.06994">
        <ele>23</ele>
      </trkpt>
      <trkpt lat="49.00171" lon="2.07002">
        <ele>22.8</ele>
      </trkpt>
      <trkpt lat="49.00175" lon="2.07027">
        <ele>22.7</ele>
      </trkpt>
      <trkpt lat="49.00153" lon="2.07063">
        <ele>22.5</ele>
      </trkpt>
      <trkpt lat="49.0015" lon="2.07079">
        <ele>22.6</ele>
      </trkpt>
      <trkpt lat="49.00161" lon="2.07081">
        <ele>22.2</ele>
      </trkpt>
      <trkpt lat="49.0016" lon="2.07097">
        <ele>22</ele>
        <time>2021-11-03T22:33:37+01:00</time>
      </trkpt>
      <trkpt lat="49.00211" lon="2.07071">
        <ele>21</ele>
        <time>2021-11-03T22:33:42+01:00</time>
      </trkpt>
      <trkpt lat="49.00256" lon="2.07045">
        <ele>21.9</ele>
        <time>2021-11-03T22:33:47+01:00</time>
      </trkpt>
      <trkpt lat="49.00393" lon="2.06923">
        <ele>22.6</ele>
      </trkpt>
      <trkpt lat="49.00439" lon="2.06872">
        <ele>22.7</ele>
        <time>2021-11-03T22:33:52+01:00</time>
      </trkpt>
      <trkpt lat="49.00457" lon="2.06852">
        <ele>22.4</ele>
      </trkpt>
      <trkpt lat="49.00465" lon="2.06836">
        <ele>22.8</ele>
      </trkpt>
      <trkpt lat="49.00494" lon="2.06815">
        <ele>22.7</ele>
      </trkpt>
      <trkpt lat="49.00544" lon="2.06774">
        <ele>21</ele>
        <time>2021-11-03T22:33:57+01:00</time>
      </trkpt>
      <trkpt lat="49.0058" lon="2.06715">
        <ele>23</ele>
      </trkpt>
      <trkpt lat="49.00597" lon="2.06696">
        <ele>22</ele>
      </trkpt>
      <trkpt lat="49.00634" lon="2.06642">
        <ele>21</ele>
        <time>2021-11-03T22:34:02+01:00</time>
      </trkpt>
      <trkpt lat="49.00699" lon="2.06529">
        <ele>23</ele>
        <time>2021-11-03T22:34:07+01:00</time>
      </trkpt>
      <trkpt lat="49.00712" lon="2.06511">
        <ele>22.4</ele>
        <time>2021-11-03T22:34:12+01:00</time>
      </trkpt>
      <trkpt lat="49.00761" lon="2.06428">
        <ele>22.3</ele>
        <time>2021-11-03T22:34:17+01:00</time>
      </trkpt>
      <trkpt lat="49.00814" lon="2.06371">
        <ele>22</ele>
        <time>2021-11-03T22:34:22+01:00</time>
      </trkpt>
      <trkpt lat="49.00848" lon="2.06316">
        <ele>22</ele>
      </trkpt>
      <trkpt lat="49.00857" lon="2.06303">
        <ele>22</ele>
      </trkpt>
      <trkpt lat="49.00863" lon="2.06288">
        <ele>21.9</ele>
        <time>2021-11-03T22:34:27+01:00</time>
      </trkpt>
      <trkpt lat="49.00952" lon="2.06174">
        <ele>22.3</ele>
        <time>2021-11-03T22:34:32+01:00</time>
      </trkpt>
      <trkpt lat="49.00998" lon="2.06114">
        <ele>21</ele>
        <time>2021-11-03T22:34:37+01:00</time>
      </trkpt>
      <trkpt lat="49.01069" lon="2.06026">
        <ele>20</ele>
        <time>2021-11-03T22:34:42+01:00</time>
      </trkpt>
      <trkpt lat="49.01151" lon="2.059">
        <ele>22.4</ele>
        <time>2021-11-03T22:34:47+01:00</time>
      </trkpt>
      <trkpt lat="49.01222" lon="2.05789">
        <ele>22.6</ele>
      </trkpt>
      <trkpt lat="49.01272" lon="2.05727">
        <ele>22.7</ele>
        <time>2021-11-03T22:34:52+01:00</time>
      </trkpt>
      <trkpt lat="49.01288" lon="2.05721">
        <ele>22.3</ele>
      </trkpt>
      <trkpt lat="49.01305" lon="2.05694">
        <ele>22</ele>
        <time>2021-11-03T22:34:57+01:00</time>
      </trkpt>
      <trkpt lat="49.01323" lon="2.05649">
        <ele>23.4</ele>
        <time>2021-11-03T22:35:02+01:00</time>
      </trkpt>
      <trkpt lat="49.01337" lon="2.05647">
        <ele>23.1</ele>
        <time>2021-11-03T22:35:07+01:00</time>
      </trkpt>
      <trkpt lat="49.01337" lon="2.05617">
        <ele>26.6</ele>
      </trkpt>
      <trkpt lat="49.01332" lon="2.05606">
        <ele>27.8</ele>
        <time>2021-11-03T22:35:12+01:00</time>
      </trkpt>
      <trkpt lat="49.01306" lon="2.05555">
        <ele>26.9</ele>
      </trkpt>
      <trkpt lat="49.01278" lon="2.05525">
        <ele>26.1</ele>
        <time>2021-11-03T22:35:17+01:00</time>
      </trkpt>
      <trkpt lat="49.01284" lon="2.0551">
        <ele>26</ele>
        <time>2021-11-03T22:35:22+01:00</time>
      </trkpt>
      <trkpt lat="49.01266" lon="2.05473">
        <ele>25.9</ele>
      </trkpt>
      <trkpt lat="49.01265" lon="2.05439">
        <ele>25.8</ele>
      </trkpt>
      <trkpt lat="49.01263" lon="2.05403">
        <ele>26.1</ele>
      </trkpt>
      <trkpt lat="49.01253" lon="2.05375">
        <ele>27.6</ele>
      </trkpt>
      <trkpt lat="49.01247" lon="2.05334">
        <ele>28.3</ele>
      </trkpt>
      <trkpt lat="49.01249" lon="2.05303">
        <ele>29.2</ele>
      </trkpt>
      <trkpt lat="49.01233" lon="2.05296">
        <ele>30.9</ele>
      </trkpt>
      <trkpt lat="49.01221" lon="2.0531">
        <ele>31</ele>
      </trkpt>
      <trkpt lat="49.0121" lon="2.05322">
        <ele>30.7</ele>
      </trkpt>
      <trkpt lat="49.01206" lon="2.05314">
        <ele>30.8</ele>
      </trkpt>
      <trkpt lat="49.01205" lon="2.05301">
        <ele>31.4</ele>
      </trkpt>
      <trkpt lat="49.0121" lon="2.0528">
        <ele>33.3</ele>
      </trkpt>
      <trkpt lat="49.01209" lon="2.05263">
        <ele>34.9</ele>
        <time>2021-11-03T22:35:42+01:00</time>
      </trkpt>
      <trkpt lat="49.01198" lon="2.05242">
        <ele>36.5</ele>
        <time>2021-11-03T22:35:47+01:00</time>
      </trkpt>
      <trkpt lat="49.01187" lon="2.05194">
        <ele>39</ele>
        <time>2021-11-03T22:35:52+01:00</time>
      </trkpt>
      <trkpt lat="49.01222" lon="2.05173">
        <ele>39.8</ele>
      </trkpt>
      <trkpt lat="49.01256" lon="2.05139">
        <ele>38.4</ele>
        <time>2021-11-03T22:36:57+01:00</time>
      </trkpt>
      <trkpt lat="49.01312" lon="2.05053">
        <ele>39</ele>
        <time>2021-11-03T22:37:02+01:00</time>
      </trkpt>
      <trkpt lat="49.01384" lon="2.04948">
        <ele>42.4</ele>
      </trkpt>
      <trkpt lat="49.01453" lon="2.04838">
        <ele>44.3</ele>
        <time>2021-11-03T22:37:07+01:00</time>
      </trkpt>
      <trkpt lat="49.01495" lon="2.04705">
        <ele>48.3</ele>
      </trkpt>
      <trkpt lat="49.01549" lon="2.04587">
        <ele>51</ele>
        <time>2021-11-03T22:37:12+01:00</time>
      </trkpt>
      <trkpt lat="49.01743" lon="2.04319">
        <ele>46.9</ele>
        <time>2021-12-11T14:13:26+01:00</time>
      </trkpt>
      <trkpt lat="49.01845" lon="2.04219">
        <ele>41.8</ele>
        <time>2021-12-11T14:13:31+01:00</time>
      </trkpt>
      <trkpt lat="49.01912" lon="2.04112">
        <ele>32.1</ele>
      </trkpt>
      <trkpt lat="49.01926" lon="2.04092">
        <ele>31.4</ele>
      </trkpt>
      <trkpt lat="49.01925" lon="2.04081">
        <ele>31.4</ele>
      </trkpt>
      <trkpt lat="49.01964" lon="2.04005">
        <ele>34.9</ele>
        <time>2021-12-11T14:13:36+01:00</time>
      </trkpt>
      <trkpt lat="49.01986" lon="2.03997">
        <ele>37.6</ele>
      </trkpt>
      <trkpt lat="49.02011" lon="2.03997">
        <ele>40.5</ele>
        <time>2021-11-03T22:37:17+01:00</time>
      </trkpt>
      <trkpt lat="49.02019" lon="2.03963">
        <ele>44.3</ele>
      </trkpt>
      <trkpt lat="49.0202" lon="2.03895">
        <ele>51.3</ele>
      </trkpt>
      <trkpt lat="49.02026" lon="2.03847">
        <ele>54</ele>
        <time>2021-12-11T14:13:46+01:00</time>
      </trkpt>
      <trkpt lat="49.02025" lon="2.03752">
        <ele>63</ele>
        <time>2021-12-11T14:13:51+01:00</time>
      </trkpt>
      <trkpt lat="49.01962" lon="2.03635">
        <ele>61</ele>
        <time>2021-12-11T14:13:56+01:00</time>
      </trkpt>
      <trkpt lat="49.01875" lon="2.03312">
        <ele>71</ele>
        <time>2021-12-11T14:14:01+01:00</time>
      </trkpt>
      <trkpt lat="49.01878" lon="2.03098">
        <ele>76.2</ele>
      </trkpt>
      <trkpt lat="49.01873" lon="2.02992">
        <ele>78.3</ele>
      </trkpt>
      <trkpt lat="49.01866" lon="2.02971">
        <ele>78.2</ele>
        <time>2021-12-11T14:14:06+01:00</time>
      </trkpt>
      <trkpt lat="49.01862" lon="2.0297">
        <ele>78.1</ele>
        <time>2021-12-11T14:14:11+01:00</time>
      </trkpt>
      <trkpt lat="49.01858" lon="2.02972">
        <ele>78.3</ele>
      </trkpt>
      <trkpt lat="49.01844" lon="2.02966">
        <ele>79.4</ele>
      </trkpt>
      <trkpt lat="49.01796" lon="2.02968">
        <ele>81.8</ele>
        <time>2021-11-03T22:37:22+01:00</time>
      </trkpt>
      <trkpt lat="49.01758" lon="2.02968">
        <ele>83.1</ele>
      </trkpt>
      <trkpt lat="49.01752" lon="2.02972">
        <ele>83</ele>
      </trkpt>
      <trkpt lat="49.01728" lon="2.02978">
        <ele>82.1</ele>
        <time>2021-12-11T14:14:21+01:00</time>
      </trkpt>
      <trkpt lat="49.01706" lon="2.03">
        <ele>79.2</ele>
      </trkpt>
      <trkpt lat="49.01689" lon="2.03003">
        <ele>76.8</ele>
        <time>2021-12-11T14:14:26+01:00</time>
      </trkpt>
      <trkpt lat="49.0168" lon="2.03005">
        <ele>74.7</ele>
        <time>2021-12-11T14:14:36+01:00</time>
      </trkpt>
      <trkpt lat="49.01677" lon="2.02989">
        <ele>74.6</ele>
        <time>2021-12-11T14:14:41+01:00</time>
      </trkpt>
      <trkpt lat="49.01673" lon="2.02982">
        <ele>74.1</ele>
      </trkpt>
      <trkpt lat="49.0167" lon="2.02978">
        <ele>73.4</ele>
        <time>2021-12-11T14:14:46+01:00</time>
      </trkpt>
      <trkpt lat="49.01669" lon="2.02991">
        <ele>72.7</ele>
      </trkpt>
      <trkpt lat="49.01666" lon="2.02998">
        <ele>71.8</ele>
        <time>2021-12-11T14:14:51+01:00</time>
      </trkpt>
      <trkpt lat="49.01659" lon="2.02987">
        <ele>69.7</ele>
        <time>2021-12-11T14:14:56+01:00</time>
      </trkpt>
      <trkpt lat="49.0164" lon="2.03002">
        <ele>63.2</ele>
        <time>2021-12-11T14:15:01+01:00</time>
      </trkpt>
      <trkpt lat="49.0162" lon="2.03004">
        <ele>62.9</ele>
        <time>2021-12-11T14:15:06+01:00</time>
      </trkpt>
      <trkpt lat="49.01607" lon="2.03001">
        <ele>64.4</ele>
        <time>2021-12-11T14:15:11+01:00</time>
      </trkpt>
      <trkpt lat="49.016" lon="2.03007">
        <ele>66.8</ele>
      </trkpt>
      <trkpt lat="49.01591" lon="2.02982">
        <ele>71.6</ele>
      </trkpt>
      <trkpt lat="49.01585" lon="2.02981">
        <ele>73.9</ele>
        <time>2021-12-11T14:15:16+01:00</time>
      </trkpt>
      <trkpt lat="49.01576" lon="2.0302">
        <ele>73</ele>
        <time>2021-12-11T14:15:21+01:00</time>
      </trkpt>
      <trkpt lat="49.01543" lon="2.02967">
        <ele>80.2</ele>
        <time>2021-11-03T22:37:27+01:00</time>
      </trkpt>
      <trkpt lat="49.01557" lon="2.02909">
        <ele>85</ele>
        <time>2021-12-11T14:15:31+01:00</time>
      </trkpt>
      <trkpt lat="49.01503" lon="2.02827">
        <ele>90</ele>
        <time>2021-12-11T14:15:36+01:00</time>
      </trkpt>
      <trkpt lat="49.015" lon="2.02783">
        <ele>91</ele>
        <time>2021-12-11T14:15:41+01:00</time>
      </trkpt>
      <trkpt lat="49.01474" lon="2.02747">
        <ele>87.9</ele>
        <time>2021-12-11T14:15:46+01:00</time>
      </trkpt>
      <trkpt lat="49.0147" lon="2.02706">
        <ele>91</ele>
        <time>2021-12-11T14:15:51+01:00</time>
      </trkpt>
      <trkpt lat="49.01485" lon="2.02659">
        <ele>85.8</ele>
        <time>2021-12-11T14:15:56+01:00</time>
      </trkpt>
      <trkpt lat="49.0152" lon="2.02656">
        <ele>81.8</ele>
        <time>2021-12-11T14:16:01+01:00</time>
      </trkpt>
      <trkpt lat="49.01536" lon="2.02632">
        <ele>78.5</ele>
        <time>2021-12-11T14:16:06+01:00</time>
      </trkpt>
      <trkpt lat="49.01525" lon="2.02608">
        <ele>87</ele>
        <time>2021-12-11T14:16:11+01:00</time>
      </trkpt>
      <trkpt lat="49.01504" lon="2.02589">
        <ele>87</ele>
        <time>2021-12-11T14:16:16+01:00</time>
      </trkpt>
      <trkpt lat="49.01363" lon="2.02749">
        <ele>89</ele>
        <time>2021-12-11T14:16:21+01:00</time>
      </trkpt>
      <trkpt lat="49.01343" lon="2.02746">
        <ele>90</ele>
        <time>2021-12-11T14:16:26+01:00</time>
      </trkpt>
      <trkpt lat="49.01282" lon="2.02641">
        <ele>93</ele>
        <time>2021-12-11T14:16:31+01:00</time>
      </trkpt>
      <trkpt lat="49.01316" lon="2.02565">
        <ele>93</ele>
        <time>2021-12-11T14:16:36+01:00</time>
      </trkpt>
      <trkpt lat="49.0134" lon="2.0251">
        <ele>94</ele>
        <time>2021-12-11T14:16:41+01:00</time>
      </trkpt>
      <trkpt lat="49.01241" lon="2.02281">
        <ele>94</ele>
        <time>2021-12-11T14:16:46+01:00</time>
      </trkpt>
      <trkpt lat="49.01242" lon="2.02247">
        <ele>94</ele>
        <time>2021-12-11T14:16:51+01:00</time>
      </trkpt>
      <trkpt lat="49.01205" lon="2.02141">
        <ele>95</ele>
        <time>2021-12-11T14:16:56+01:00</time>
      </trkpt>
      <trkpt lat="49.01149" lon="2.01975">
        <ele>101.5</ele>
      </trkpt>
      <trkpt lat="49.01121" lon="2.01994">
        <ele>101.7</ele>
      </trkpt>
      <trkpt lat="49.01111" lon="2.01975">
        <ele>100</ele>
        <time>2021-12-11T14:17:06+01:00</time>
      </trkpt>
      <trkpt lat="49.01012" lon="2.01764">
        <ele>109</ele>
        <time>2021-12-11T14:17:11+01:00</time>
      </trkpt>
      <trkpt lat="49.00954" lon="2.01737">
        <ele>110.3</ele>
      </trkpt>
      <trkpt lat="49.00923" lon="2.01712">
        <ele>107</ele>
        <time>2021-12-11T14:17:16+01:00</time>
      </trkpt>
      <trkpt lat="49.00809" lon="2.01533">
        <ele>117.8</ele>
        <time>2021-12-11T14:17:21+01:00</time>
      </trkpt>
      <trkpt lat="49.00749" lon="2.01571">
        <ele>118.5</ele>
      </trkpt>
      <trkpt lat="49.00735" lon="2.01546">
        <ele>120.6</ele>
        <time>2021-12-11T14:17:26+01:00</time>
      </trkpt>
      <trkpt lat="49.00619" lon="2.01617">
        <ele>121.4</ele>
        <time>2021-12-11T14:17:31+01:00</time>
      </trkpt>
      <trkpt lat="49.00636" lon="2.01707">
        <ele>116.7</ele>
      </trkpt>
      <trkpt lat="49.00638" lon="2.01764">
        <ele>114.5</ele>
        <time>2021-12-11T14:17:36+01:00</time>
      </trkpt>
      <trkpt lat="49.00626" lon="2.0177">
        <ele>115</ele>
        <time>2021-12-11T14:17:41+01:00</time>
      </trkpt>
      <trkpt lat="49.00543" lon="2.01834">
        <ele>116</ele>
        <time>2021-12-11T14:17:46+01:00</time>
      </trkpt>
      <trkpt lat="49.00473" lon="2.0191">
        <ele>115.9</ele>
      </trkpt>
      <trkpt lat="49.00432" lon="2.01984">
        <ele>121</ele>
        <time>2021-12-11T14:17:51+01:00</time>
      </trkpt>
      <trkpt lat="49.0034" lon="2.02131">
        <ele>122.5</ele>
        <time>2021-12-11T14:17:56+01:00</time>
      </trkpt>
      <trkpt lat="49.00212" lon="2.02303">
        <ele>130</ele>
        <time>2021-12-11T14:18:01+01:00</time>
      </trkpt>
      <trkpt lat="49.00164" lon="2.02345">
        <ele>124.2</ele>
        <time>2021-11-03T22:37:37+01:00</time>
      </trkpt>
      <trkpt lat="49.00139" lon="2.02397">
        <ele>121.4</ele>
        <time>2021-11-03T22:37:42+01:00</time>
      </trkpt>
      <trkpt lat="49.0015" lon="2.02446">
        <ele>123</ele>
        <time>2021-11-03T22:37:47+01:00</time>
      </trkpt>
      <trkpt lat="49.00163" lon="2.02505">
        <ele>114.8</ele>
      </trkpt>
      <trkpt lat="49.00192" lon="2.0255">
        <ele>112</ele>
        <time>2021-11-03T22:37:52+01:00</time>
      </trkpt>
      <trkpt lat="49.00213" lon="2.02568">
        <ele>111</ele>
        <time>2021-11-03T22:37:57+01:00</time>
      </trkpt>
      <trkpt lat="49.00276" lon="2.0262">
        <ele>107</ele>
        <time>2021-11-03T22:38:02+01:00</time>
      </trkpt>
      <trkpt lat="49.00331" lon="2.02683">
        <ele>103</ele>
        <time>2021-11-03T22:38:07+01:00</time>
      </trkpt>
      <trkpt lat="49.0036" lon="2.02755">
        <ele>99</ele>
        <time>2021-11-03T22:38:12+01:00</time>
      </trkpt>
      <trkpt lat="49.00388" lon="2.02841">
        <ele>96</ele>
        <time>2021-11-03T22:38:17+01:00</time>
      </trkpt>
      <trkpt lat="49.00328" lon="2.02889">
        <ele>94</ele>
        <time>2021-11-03T22:38:22+01:00</time>
      </trkpt>
      <trkpt lat="49.00169" lon="2.03062">
        <ele>103</ele>
        <time>2021-11-03T22:38:27+01:00</time>
      </trkpt>
      <trkpt lat="48.99992" lon="2.03182">
        <ele>107</ele>
        <time>2021-11-03T22:38:32+01:00</time>
      </trkpt>
      <trkpt lat="48.99982" lon="2.03311">
        <ele>101</ele>
        <time>2021-11-03T22:38:37+01:00</time>
      </trkpt>
      <trkpt lat="48.99955" lon="2.03423">
        <ele>100</ele>
        <time>2021-11-03T22:38:42+01:00</time>
      </trkpt>
      <trkpt lat="48.99576" lon="2.03599">
        <ele>106</ele>
        <time>2021-11-03T22:38:47+01:00</time>
      </trkpt>
      <trkpt lat="48.99447" lon="2.03627">
        <ele>102</ele>
        <time>2021-11-03T22:38:52+01:00</time>
      </trkpt>
      <trkpt lat="48.99397" lon="2.03639">
        <ele>102.3</ele>
      </trkpt>
      <trkpt lat="48.99283" lon="2.03633">
        <ele>96.5</ele>
        <time>2021-11-03T22:38:57+01:00</time>
      </trkpt>
      <trkpt lat="48.99208" lon="2.03626">
        <ele>96</ele>
        <time>2021-11-03T22:39:02+01:00</time>
      </trkpt>
      <trkpt lat="48.99119" lon="2.0359">
        <ele>103.2</ele>
      </trkpt>
      <trkpt lat="48.99031" lon="2.03543">
        <ele>111.2</ele>
        <time>2021-11-03T22:39:07+01:00</time>
      </trkpt>
      <trkpt lat="48.99034" lon="2.03585">
        <ele>109.5</ele>
      </trkpt>
      <trkpt lat="48.98972" lon="2.03845">
        <ele>102.1</ele>
        <time>2021-11-03T22:39:12+01:00</time>
      </trkpt>
      <trkpt lat="48.98924" lon="2.03825">
        <ele>106</ele>
      </trkpt>
      <trkpt lat="48.98969" lon="2.03851">
        <ele>102.4</ele>
        <time>2021-11-03T22:39:17+01:00</time>
      </trkpt>
      <trkpt lat="48.98948" lon="2.03896">
        <ele>104.9</ele>
      </trkpt>
      <trkpt lat="48.98929" lon="2.03975">
        <ele>109.7</ele>
        <time>2021-11-03T22:39:22+01:00</time>
      </trkpt>
      <trkpt lat="48.98925" lon="2.04004">
        <ele>111.1</ele>
        <time>2021-11-03T22:39:27+01:00</time>
      </trkpt>
      <trkpt lat="48.98944" lon="2.0413">
        <ele>110</ele>
        <time>2021-11-03T22:39:32+01:00</time>
      </trkpt>
      <trkpt lat="48.99018" lon="2.04566">
        <ele>99</ele>
        <time>2021-11-03T22:39:37+01:00</time>
      </trkpt>
      <trkpt lat="48.99033" lon="2.04636">
        <ele>100.6</ele>
      </trkpt>
      <trkpt lat="48.99052" lon="2.04708">
        <ele>98.7</ele>
        <time>2021-11-03T22:39:42+01:00</time>
      </trkpt>
      <trkpt lat="48.98918" lon="2.04778">
        <ele>101</ele>
        <time>2021-11-03T22:39:47+01:00</time>
      </trkpt>
      <trkpt lat="48.98798" lon="2.04844">
        <ele>105.6</ele>
        <time>2021-11-03T22:39:52+01:00</time>
      </trkpt>
      <trkpt lat="48.98768" lon="2.04881">
        <ele>104.5</ele>
      </trkpt>
      <trkpt lat="48.987" lon="2.0498">
        <ele>100.7</ele>
        <time>2021-11-03T22:39:57+01:00</time>
      </trkpt>
      <trkpt lat="48.98654" lon="2.05039">
        <ele>96.8</ele>
      </trkpt>
      <trkpt lat="48.98616" lon="2.05099">
        <ele>93.3</ele>
        <time>2021-11-03T22:40:02+01:00</time>
      </trkpt>
      <trkpt lat="48.98626" lon="2.05168">
        <ele>89.4</ele>
        <time>2021-11-03T22:40:07+01:00</time>
      </trkpt>
      <trkpt lat="48.98624" lon="2.05219">
        <ele>86.3</ele>
      </trkpt>
      <trkpt lat="48.98633" lon="2.05312">
        <ele>82.6</ele>
        <time>2021-11-03T22:40:12+01:00</time>
      </trkpt>
      <trkpt lat="48.98638" lon="2.05335">
        <ele>82</ele>
        <time>2021-11-03T22:40:17+01:00</time>
      </trkpt>
      <trkpt lat="48.98671" lon="2.0562">
        <ele>70</ele>
        <time>2021-11-03T22:40:22+01:00</time>
      </trkpt>
      <trkpt lat="48.9871" lon="2.05796">
        <ele>63.8</ele>
        <time>2021-11-03T22:40:27+01:00</time>
      </trkpt>
      <trkpt lat="48.98706" lon="2.05806">
        <ele>63.5</ele>
        <time>2021-11-03T22:40:32+01:00</time>
      </trkpt>
      <trkpt lat="48.98713" lon="2.05957">
        <ele>45.8</ele>
        <time>2021-11-03T22:40:37+01:00</time>
      </trkpt>
      <trkpt lat="48.98719" lon="2.05961">
        <ele>45.3</ele>
      </trkpt>
      <trkpt lat="48.98718" lon="2.05972">
        <ele>44.2</ele>
      </trkpt>
      <trkpt lat="48.98722" lon="2.05977">
        <ele>43.8</ele>
        <time>2021-11-03T22:40:42+01:00</time>
      </trkpt>
      <trkpt lat="48.98715" lon="2.06011">
        <ele>40</ele>
        <time>2021-11-03T22:40:47+01:00</time>
      </trkpt>
      <trkpt lat="48.98691" lon="2.0601">
        <ele>39.8</ele>
        <time>2021-11-03T22:40:52+01:00</time>
      </trkpt>
      <trkpt lat="48.98689" lon="2.06028">
        <ele>38</ele>
      </trkpt>
      <trkpt lat="48.98691" lon="2.06128">
        <ele>31</ele>
        <time>2021-11-03T22:40:57+01:00</time>
      </trkpt>
      <trkpt lat="48.9866" lon="2.06124">
        <ele>31</ele>
        <time>2021-11-03T22:41:02+01:00</time>
      </trkpt>
      <trkpt lat="48.9861" lon="2.06349">
        <ele>23</ele>
        <time>2021-11-03T22:41:07+01:00</time>
      </trkpt>
      <trkpt lat="48.98627" lon="2.06362">
        <ele>23</ele>
        <time>2021-11-03T22:41:12+01:00</time>
      </trkpt>
      <trkpt lat="48.98535" lon="2.0666">
        <ele>23</ele>
        <time>2021-11-03T22:41:17+01:00</time>
      </trkpt>
      <trkpt lat="48.98604" lon="2.06838">
        <ele>22.5</ele>
        <time>2021-11-03T22:41:22+01:00</time>
      </trkpt>
      <trkpt lat="48.98645" lon="2.06926">
        <ele>22.9</ele>
        <time>2021-11-03T22:41:27+01:00</time>
      </trkpt>
      <trkpt lat="48.98685" lon="2.06989">
        <ele>22.5</ele>
      </trkpt>
      <trkpt lat="48.98726" lon="2.07028">
        <ele>22.1</ele>
        <time>2021-11-03T22:41:32+01:00</time>
      </trkpt>
      <trkpt lat="48.9873" lon="2.0704">
        <ele>21.9</ele>
      </trkpt>
      <trkpt lat="48.98787" lon="2.07075">
        <ele>22</ele>
        <time>2021-11-03T22:41:37+01:00</time>
      </trkpt>
      <trkpt lat="48.98869" lon="2.07088">
        <ele>21</ele>
        <time>2021-11-03T22:41:42+01:00</time>
      </trkpt>
      <trkpt lat="48.98932" lon="2.07115">
        <ele>23.1</ele>
        <time>2021-11-03T22:41:47+01:00</time>
      </trkpt>
      <trkpt lat="48.9895" lon="2.07057">
        <ele>25.3</ele>
      </trkpt>
      <trkpt lat="48.9895" lon="2.07057">
        <ele>25.4</ele>
        <time>2021-11-03T22:41:52+01:00</time>
      </trkpt>
      <trkpt lat="48.98861" lon="2.07298">
        <ele>23</ele>
        <time>2021-11-03T22:41:57+01:00</time>
      </trkpt>
      <trkpt lat="48.98811" lon="2.07423">
        <ele>24</ele>
        <time>2021-11-03T22:42:02+01:00</time>
      </trkpt>
      <trkpt lat="48.98814" lon="2.07447">
        <ele>24</ele>
        <time>2021-11-03T22:42:07+01:00</time>
      </trkpt>
      <trkpt lat="48.98802" lon="2.07472">
        <ele>24</ele>
        <time>2021-11-03T22:42:12+01:00</time>
      </trkpt>
      <trkpt lat="48.98807" lon="2.07506">
        <ele>25</ele>
        <time>2021-11-03T22:42:17+01:00</time>
      </trkpt>
      <trkpt lat="48.98789" lon="2.07515">
        <ele>24</ele>
        <time>2021-11-03T22:42:22+01:00</time>
      </trkpt>
      <trkpt lat="48.98876" lon="2.0789">
        <ele>22</ele>
        <time>2021-11-03T22:42:27+01:00</time>
      </trkpt>
      <trkpt lat="48.98949" lon="2.08195">
        <ele>22.3</ele>
        <time>2021-11-03T22:42:32+01:00</time>
      </trkpt>
      <trkpt lat="48.98959" lon="2.08266">
        <ele>23.6</ele>
      </trkpt>
      <trkpt lat="48.98958" lon="2.08291">
        <ele>23.4</ele>
      </trkpt>
      <trkpt lat="48.98965" lon="2.08305">
        <ele>24.6</ele>
      </trkpt>
      <trkpt lat="48.98975" lon="2.08366">
        <ele>23</ele>
      </trkpt>
      <trkpt lat="48.98985" lon="2.08392">
        <ele>22.8</ele>
        <time>2021-11-03T22:42:37+01:00</time>
      </trkpt>
      <trkpt lat="48.99012" lon="2.08545">
        <ele>22.8</ele>
        <time>2021-11-03T22:42:42+01:00</time>
      </trkpt>
    </trkseg>
  </trk>
</gpx>